Ghadamis, Libya
Current Conditions -  °F | °C
As of 5:00 PM on Tuesday 21 Oct 2014 (Local Time) from DTTR Reporting Station
Clear Clear  
Wind Chill: 86°   Ceiling: Unl
Heat Index: 86°   Visibility: 6mi
Dew Point: 52°   Wind: 7mph
Humidity: 31%   Direction: 280°W
Pressure: 30.06"   Gusts: NA
Location:  30.13°N, 9.5°E
Report Text: DTTR 211400Z 28006KT CAVOK 30/11 Q1018
Loading
Personal Weather Stations






























Interactive Weather Map New forecast layout! Learn more

10-Day Weather Forecast

Advertisements
Track Severe Weather on mobile